Time;durP1;ratioP1;P1;durP2;ratioP2;P2;SDS_P1;SDS_P2;PMS_P1;PMS_P2;Temp;Humidity;BMP_temperature;BMP_pressure;BME280_temperature;BME280_humidity;BME280_pressure;Samples;Min_cycle;Max_cycle;Signal;HPM_P1;HPM_P2
2022/01/09 00:01:29;;;;;;;13.97;12.47;;;4.50;99.90;;;;;;5050371;28;20052;-77
2022/01/09 00:03:54;;;;;;;12.80;11.03;;;4.50;99.90;;;;;;5038878;28;20564;-78
2022/01/09 00:06:20;;;;;;;13.50;12.10;;;4.50;99.90;;;;;;5053214;28;20040;-79
2022/01/09 00:08:46;;;;;;;13.70;11.97;;;4.50;99.90;;;;;;5068639;28;20037;-78
2022/01/09 00:11:13;;;;;;;13.67;12.20;;;4.50;99.90;;;;;;5049986;28;20113;-78
2022/01/09 00:13:41;;;;;;;13.27;11.70;;;4.50;99.90;;;;;;5064369;28;20044;-78
2022/01/09 00:16:07;;;;;;;14.00;12.37;;;4.50;99.90;;;;;;5032205;28;20131;-78
2022/01/09 00:18:35;;;;;;;12.83;11.43;;;4.50;99.90;;;;;;5064980;28;20041;-77
2022/01/09 00:21:05;;;;;;;14.17;12.77;;;4.50;99.90;;;;;;5048830;28;20036;-78
2022/01/09 00:23:32;;;;;;;14.07;12.67;;;4.50;99.90;;;;;;5044124;28;20053;-79
2022/01/09 00:25:57;;;;;;;13.17;11.77;;;4.50;99.90;;;;;;5044058;28;20136;-79
2022/01/09 00:28:23;;;;;;;13.73;11.43;;;4.50;99.90;;;;;;5048732;28;20131;-79
2022/01/09 00:30:50;;;;;;;14.53;12.77;;;4.50;99.90;;;;;;5046736;28;20040;-78
2022/01/09 00:33:16;;;;;;;14.60;13.10;;;4.50;99.90;;;;;;5024386;28;20433;-79
2022/01/09 00:35:41;;;;;;;13.90;12.03;;;4.60;99.90;;;;;;5038936;28;20040;-79
2022/01/09 00:38:07;;;;;;;13.83;12.23;;;4.60;99.90;;;;;;5051477;28;20051;-78
2022/01/09 00:40:33;;;;;;;14.63;13.10;;;4.60;99.90;;;;;;5061202;28;20079;-79
2022/01/09 00:42:59;;;;;;;13.70;12.17;;;4.60;99.90;;;;;;5059733;28;20045;-78
2022/01/09 00:45:24;;;;;;;14.30;12.80;;;4.60;99.90;;;;;;5047189;28;20036;-78
2022/01/09 00:47:51;;;;;;;14.17;12.67;;;4.60;99.90;;;;;;5025122;28;20049;-79
2022/01/09 00:50:17;;;;;;;15.77;13.90;;;4.60;99.90;;;;;;5047374;28;20132;-79
2022/01/09 00:52:43;;;;;;;16.13;13.13;;;4.60;99.90;;;;;;5021667;28;20136;-78
2022/01/09 00:55:10;;;;;;;15.03;13.50;;;4.60;99.90;;;;;;5041983;28;20032;-78
2022/01/09 00:57:36;;;;;;;17.60;15.23;;;4.60;99.90;;;;;;5042616;28;20055;-77
2022/01/09 01:00:04;;;;;;;15.57;13.90;;;4.60;99.90;;;;;;5031075;28;20383;-78
2022/01/09 01:02:30;;;;;;;17.33;15.53;;;4.60;99.90;;;;;;5046243;28;20044;-78
2022/01/09 01:04:57;;;;;;;17.50;15.33;;;4.60;99.90;;;;;;5064667;28;20093;-78
2022/01/09 01:07:23;;;;;;;16.73;15.13;;;4.60;99.90;;;;;;5052557;28;20054;-78
2022/01/09 01:09:49;;;;;;;17.00;15.30;;;4.70;99.90;;;;;;5048808;28;20040;-78
2022/01/09 01:12:15;;;;;;;18.03;16.13;;;4.70;99.90;;;;;;5051201;28;20041;-79
2022/01/09 01:14:41;;;;;;;18.63;16.73;;;4.70;99.90;;;;;;5028932;28;20045;-79
2022/01/09 01:17:08;;;;;;;18.37;16.33;;;4.70;99.90;;;;;;5045061;28;20040;-79
2022/01/09 01:19:34;;;;;;;21.90;18.37;;;4.70;99.90;;;;;;5057441;28;20119;-79
2022/01/09 01:22:02;;;;;;;19.43;17.17;;;4.70;99.90;;;;;;5038996;28;20075;-78
2022/01/09 01:24:28;;;;;;;18.60;16.57;;;4.70;99.90;;;;;;5049314;28;20075;-78
2022/01/09 01:26:53;;;;;;;21.23;18.37;;;4.70;99.90;;;;;;5045653;28;20055;-77
2022/01/09 01:29:19;;;;;;;20.63;18.13;;;4.70;99.90;;;;;;5057132;28;20467;-79
2022/01/09 01:31:45;;;;;;;22.27;19.90;;;4.70;99.90;;;;;;5061123;28;20055;-79
2022/01/09 01:34:12;;;;;;;21.30;19.10;;;4.80;99.90;;;;;;5024272;28;20752;-79
2022/01/09 01:36:38;;;;;;;23.83;20.20;;;4.80;99.90;;;;;;5047313;28;20041;-78
2022/01/09 01:39:05;;;;;;;24.20;19.80;;;4.70;99.90;;;;;;5059957;28;20044;-79
2022/01/09 01:41:31;;;;;;;25.83;21.07;;;4.70;99.90;;;;;;5038297;28;20165;-79
2022/01/09 01:43:57;;;;;;;24.73;20.90;;;4.70;99.90;;;;;;5045061;28;20044;-79
2022/01/09 01:46:22;;;;;;;27.53;22.27;;;4.70;99.90;;;;;;5047372;28;20085;-78
2022/01/09 01:48:48;;;;;;;24.10;20.83;;;4.80;99.90;;;;;;5039031;28;20049;-78
2022/01/09 01:51:14;;;;;;;27.13;22.90;;;4.80;99.90;;;;;;5032983;28;20119;-79
2022/01/09 01:53:40;;;;;;;24.53;21.80;;;4.80;99.90;;;;;;5039744;28;20048;-79
2022/01/09 01:56:07;;;;;;;32.03;24.70;;;4.80;99.90;;;;;;5046383;28;20036;-78
2022/01/09 01:58:35;;;;;;;33.07;24.27;;;4.80;99.90;;;;;;5038012;28;20509;-78
2022/01/09 02:01:00;;;;;;;28.27;22.47;;;4.80;99.90;;;;;;5047082;28;20412;-78
2022/01/09 02:03:26;;;;;;;29.77;23.70;;;4.80;99.90;;;;;;5045054;28;20045;-79
2022/01/09 02:05:52;;;;;;;28.37;22.30;;;4.80;99.90;;;;;;5046675;28;20086;-78
2022/01/09 02:08:18;;;;;;;32.50;23.80;;;4.80;99.90;;;;;;5036609;28;20040;-78
2022/01/09 02:10:45;;;;;;;31.63;24.10;;;4.90;99.90;;;;;;5028429;28;20044;-79
2022/01/09 02:13:12;;;;;;;32.10;23.57;;;4.80;99.90;;;;;;5024624;28;20068;-79
2022/01/09 02:15:42;;;;;;;29.97;22.37;;;4.90;99.90;;;;;;5043429;28;20047;-78
2022/01/09 02:18:10;;;;;;;28.87;21.70;;;4.90;99.90;;;;;;5037109;28;20116;-79
2022/01/09 02:20:39;;;;;;;30.83;22.83;;;4.90;99.90;;;;;;5034807;28;20127;-79
2022/01/09 02:23:06;;;;;;;36.50;24.17;;;4.90;99.90;;;;;;5021573;28;20390;-79
2022/01/09 02:25:33;;;;;;;31.43;22.47;;;4.90;99.90;;;;;;5030499;28;20386;-79
2022/01/09 02:27:59;;;;;;;30.10;21.33;;;4.90;99.90;;;;;;5061337;28;20040;-78
2022/01/09 02:30:25;;;;;;;30.57;22.03;;;5.00;99.90;;;;;;5045781;28;20174;-77
2022/01/09 02:32:51;;;;;;;26.77;19.30;;;5.00;99.90;;;;;;5039076;28;20156;-79
2022/01/09 02:35:20;;;;;;;27.07;18.87;;;5.00;99.90;;;;;;5045622;28;20417;-79
2022/01/09 02:37:48;;;;;;;28.77;18.80;;;5.00;99.90;;;;;;5059349;28;20044;-79
2022/01/09 02:40:14;;;;;;;25.13;17.73;;;5.10;99.90;;;;;;5039285;28;20410;-77
2022/01/09 02:42:39;;;;;;;24.40;17.33;;;5.00;99.90;;;;;;5045543;28;20251;-78
2022/01/09 02:45:06;;;;;;;27.07;18.67;;;5.10;99.90;;;;;;5044926;28;20047;-79
2022/01/09 02:47:33;;;;;;;25.47;17.60;;;5.10;99.90;;;;;;5049920;28;20468;-78
2022/01/09 02:50:09;;;;;;;23.30;17.27;;;5.10;99.90;;;;;;5019826;28;20082;-79
2022/01/09 02:52:47;;;;;;;24.30;15.97;;;5.10;99.90;;;;;;5040539;28;20094;-79
2022/01/09 02:55:15;;;;;;;21.40;15.33;;;5.20;99.90;;;;;;5049647;28;20494;-78
2022/01/09 02:57:42;;;;;;;21.20;14.83;;;5.20;99.90;;;;;;5033366;28;20494;-78
2022/01/09 03:00:11;;;;;;;20.23;13.33;;;5.20;99.90;;;;;;5046186;28;20048;-78
2022/01/09 03:02:37;;;;;;;24.10;14.43;;;5.30;99.90;;;;;;5040320;28;20098;-77
2022/01/09 03:05:03;;;;;;;18.87;13.00;;;5.30;99.90;;;;;;5045561;28;20041;-78
2022/01/09 03:07:29;;;;;;;29.53;15.10;;;5.30;99.90;;;;;;5055513;28;20130;-77
2022/01/09 03:09:55;;;;;;;21.27;12.20;;;5.40;99.90;;;;;;5065904;28;20044;-78
2022/01/09 03:12:23;;;;;;;22.53;13.13;;;5.40;99.90;;;;;;5033396;28;20094;-79
2022/01/09 03:14:49;;;;;;;25.23;13.13;;;5.40;99.90;;;;;;5039319;28;20055;-78
2022/01/09 03:17:15;;;;;;;23.70;12.03;;;5.50;99.90;;;;;;5048325;28;20040;-78
2022/01/09 03:19:41;;;;;;;28.77;11.70;;;5.50;99.90;;;;;;5055479;28;20521;-79
2022/01/09 03:22:06;;;;;;;24.70;10.30;;;5.50;99.90;;;;;;5041639;28;20514;-79
2022/01/09 03:24:32;;;;;;;28.27;9.40;;;5.60;99.90;;;;;;5050233;28;20058;-79
2022/01/09 03:26:58;;;;;;;29.47;9.50;;;5.60;99.90;;;;;;5028318;28;20406;-79
2022/01/09 03:29:25;;;;;;;26.97;7.93;;;5.70;99.90;;;;;;5048382;28;20040;-79
2022/01/09 03:31:51;;;;;;;26.23;8.33;;;5.70;99.90;;;;;;5047640;28;20056;-77
2022/01/09 03:34:17;;;;;;;27.73;7.20;;;5.70;99.90;;;;;;5029300;28;20076;-78
2022/01/09 03:36:43;;;;;;;33.23;6.50;;;5.80;99.90;;;;;;5014760;28;20084;-78
2022/01/09 03:39:09;;;;;;;41.43;7.27;;;5.80;99.90;;;;;;5042885;28;20608;-79
2022/01/09 03:41:35;;;;;;;44.17;6.97;;;5.80;99.90;;;;;;5063624;28;20045;-79
2022/01/09 03:44:00;;;;;;;47.10;6.83;;;5.90;99.90;;;;;;5033065;28;20044;-79
2022/01/09 03:46:27;;;;;;;46.23;6.20;;;6.00;99.90;;;;;;5060048;28;20085;-79
2022/01/09 03:48:53;;;;;;;51.27;6.97;;;6.00;99.90;;;;;;5030197;28;20072;-79
2022/01/09 03:51:21;;;;;;;52.00;6.80;;;6.00;99.90;;;;;;5051349;28;20059;-79
2022/01/09 03:53:46;;;;;;;47.40;6.80;;;6.10;99.90;;;;;;5042472;28;20093;-80
2022/01/09 03:56:12;;;;;;;47.23;6.40;;;6.10;99.90;;;;;;5063577;28;20497;-79
2022/01/09 03:58:38;;;;;;;53.53;6.97;;;6.10;99.90;;;;;;5052035;28;20032;-79
2022/01/09 04:01:06;;;;;;;51.03;7.33;;;6.20;99.90;;;;;;5036087;28;20166;-80
2022/01/09 04:03:34;;;;;;;72.37;8.30;;;6.20;99.90;;;;;;5044912;28;20058;-79
2022/01/09 04:06:01;;;;;;;56.63;7.13;;;6.20;99.90;;;;;;5051726;28;20068;-80
2022/01/09 04:08:27;;;;;;;49.60;7.53;;;6.30;99.90;;;;;;5048875;28;20036;-79
2022/01/09 04:10:53;;;;;;;72.40;7.57;;;6.30;99.90;;;;;;5048966;28;20067;-79
2022/01/09 04:13:19;;;;;;;65.03;6.87;;;6.30;99.90;;;;;;5039752;28;20048;-79
2022/01/09 04:15:49;;;;;;;64.43;7.27;;;6.30;99.90;;;;;;5065917;28;20423;-79
2022/01/09 04:18:16;;;;;;;50.27;6.67;;;6.30;99.90;;;;;;5040147;28;20072;-79
2022/01/09 04:20:43;;;;;;;51.83;7.17;;;6.30;99.90;;;;;;5072491;28;20052;-78
2022/01/09 04:23:09;;;;;;;47.37;6.20;;;6.30;99.90;;;;;;5045488;28;20044;-79
2022/01/09 04:25:35;;;;;;;60.53;7.43;;;6.30;99.90;;;;;;5049146;28;20052;-80
2022/01/09 04:28:00;;;;;;;56.03;6.17;;;6.30;99.90;;;;;;5044500;28;20044;-78
2022/01/09 04:30:26;;;;;;;55.00;6.97;;;6.30;99.90;;;;;;5068176;28;20037;-79
2022/01/09 04:32:52;;;;;;;52.93;6.93;;;6.30;99.90;;;;;;5025213;28;20490;-80
2022/01/09 04:35:18;;;;;;;43.20;6.13;;;6.30;99.90;;;;;;5050578;28;20047;-78
2022/01/09 04:37:47;;;;;;;42.53;6.00;;;6.30;99.90;;;;;;5044535;28;20123;-79
2022/01/09 04:40:15;;;;;;;50.77;6.37;;;6.30;99.90;;;;;;5054599;28;20048;-78
2022/01/09 04:43:04;;;;;;;41.70;5.80;;;6.30;99.90;;;;;;5061510;28;20036;-80
2022/01/09 04:45:29;;;;;;;52.43;6.10;;;6.30;99.90;;;;;;5056202;28;20048;-79
2022/01/09 04:47:58;;;;;;;45.07;5.47;;;6.30;99.90;;;;;;5045711;28;20052;-80
2022/01/09 04:50:25;;;;;;;41.20;5.83;;;6.30;99.90;;;;;;5042058;28;20054;-78
2022/01/09 04:52:59;;;;;;;37.30;4.97;;;6.30;99.90;;;;;;5068759;28;20051;-78
2022/01/09 04:55:25;;;;;;;42.88;4.95;;;6.30;99.90;;;;;;5023154;28;20044;-80
2022/01/09 04:57:50;;;;;;;43.80;5.13;;;6.30;99.90;;;;;;5045503;28;20041;-79
2022/01/09 05:00:16;;;;;;;41.93;4.83;;;6.30;99.90;;;;;;5029668;28;20055;-79
2022/01/09 05:02:42;;;;;;;31.60;4.93;;;6.30;99.90;;;;;;5020912;28;20045;-78
2022/01/09 05:05:09;;;;;;;32.53;5.43;;;6.30;99.90;;;;;;5040001;28;20036;-79
2022/01/09 05:07:35;;;;;;;35.50;4.67;;;6.30;99.90;;;;;;5055566;28;20401;-79
2022/01/09 05:10:02;;;;;;;45.50;4.70;;;6.30;99.90;;;;;;5040014;28;20102;-79
2022/01/09 05:12:28;;;;;;;47.00;4.87;;;6.40;99.90;;;;;;5039680;28;20052;-79
2022/01/09 05:14:54;;;;;;;40.23;4.73;;;6.30;99.90;;;;;;5038258;28;20041;-79
2022/01/09 05:17:20;;;;;;;30.63;4.47;;;6.30;99.90;;;;;;5030041;28;20496;-79
2022/01/09 05:19:47;;;;;;;38.80;5.50;;;6.30;99.90;;;;;;5048114;28;20074;-79
2022/01/09 05:22:13;;;;;;;33.50;5.10;;;6.30;99.90;;;;;;5061932;28;20044;-78
2022/01/09 05:24:39;;;;;;;36.73;4.63;;;6.30;99.90;;;;;;5053094;28;20045;-80
2022/01/09 05:27:06;;;;;;;41.87;4.87;;;6.30;99.90;;;;;;5039613;28;20051;-78
2022/01/09 05:29:32;;;;;;;35.60;4.60;;;6.20;99.90;;;;;;5048045;28;20049;-79
2022/01/09 05:31:57;;;;;;;30.67;4.60;;;6.20;99.90;;;;;;5035531;28;20050;-79
2022/01/09 05:34:23;;;;;;;41.13;4.70;;;6.20;99.90;;;;;;5047753;28;20040;-79
2022/01/09 05:36:49;;;;;;;39.43;4.80;;;6.20;99.90;;;;;;5023028;28;20040;-78
2022/01/09 05:39:15;;;;;;;26.33;3.73;;;6.10;99.90;;;;;;5037702;28;20126;-78
2022/01/09 05:41:43;;;;;;;36.70;6.20;;;6.20;99.90;;;;;;5046122;28;20044;-79
2022/01/09 05:44:10;;;;;;;32.30;4.13;;;6.10;99.90;;;;;;5048905;28;20029;-78
2022/01/09 05:46:36;;;;;;;26.87;4.63;;;6.10;99.90;;;;;;5037733;28;20123;-80
2022/01/09 05:49:02;;;;;;;27.53;3.87;;;6.10;99.90;;;;;;5041400;28;20113;-80
2022/01/09 05:51:28;;;;;;;38.80;4.00;;;6.10;99.90;;;;;;5063429;28;20490;-80
2022/01/09 05:53:54;;;;;;;28.37;3.90;;;6.10;99.90;;;;;;5041655;28;20056;-79
2022/01/09 05:56:19;;;;;;;29.73;3.87;;;6.10;99.90;;;;;;5055572;28;20044;-79
2022/01/09 05:58:47;;;;;;;36.13;4.20;;;6.00;99.90;;;;;;5044998;28;20098;-78
2022/01/09 06:01:14;;;;;;;20.83;3.40;;;6.00;99.90;;;;;;5049225;28;20043;-80
2022/01/09 06:03:39;;;;;;;21.50;3.83;;;6.00;99.90;;;;;;5052299;28;20054;-79
2022/01/09 06:06:06;;;;;;;38.40;5.13;;;6.00;99.90;;;;;;5028530;28;20487;-78
2022/01/09 06:08:32;;;;;;;26.60;3.60;;;5.90;99.90;;;;;;5038485;28;20044;-78
2022/01/09 06:10:57;;;;;;;27.33;3.77;;;5.90;99.90;;;;;;5067611;28;20467;-78
2022/01/09 06:13:23;;;;;;;26.60;3.73;;;5.90;99.90;;;;;;5052778;28;20068;-79
2022/01/09 06:15:49;;;;;;;34.37;3.60;;;5.90;99.90;;;;;;5044529;28;20051;-80
2022/01/09 06:18:19;;;;;;;27.30;3.33;;;5.90;99.90;;;;;;5062194;28;20041;-79
2022/01/09 06:20:45;;;;;;;30.23;3.13;;;5.90;99.90;;;;;;5046014;28;20098;-80
2022/01/09 06:23:10;;;;;;;25.73;3.67;;;5.90;99.90;;;;;;5046222;28;20048;-79
2022/01/09 06:25:36;;;;;;;30.83;3.50;;;5.90;99.90;;;;;;5037559;28;20044;-78
2022/01/09 06:28:02;;;;;;;25.30;3.20;;;5.90;99.90;;;;;;5045701;28;20118;-78
2022/01/09 06:30:27;;;;;;;31.97;3.87;;;6.00;99.90;;;;;;5043395;28;20094;-80
2022/01/09 06:32:53;;;;;;;27.70;3.83;;;5.90;99.90;;;;;;5039867;28;20098;-79
2022/01/09 06:35:20;;;;;;;26.90;4.40;;;5.90;99.90;;;;;;5044221;28;20036;-80
2022/01/09 06:37:46;;;;;;;30.73;4.20;;;5.80;99.90;;;;;;5040804;28;20056;-81
2022/01/09 06:40:12;;;;;;;28.73;3.83;;;5.80;99.90;;;;;;5042303;28;20667;-80
2022/01/09 06:42:38;;;;;;;28.70;3.57;;;5.90;99.90;;;;;;5043298;28;20127;-78
2022/01/09 06:45:05;;;;;;;24.93;3.47;;;5.80;99.90;;;;;;5042270;28;20071;-79
2022/01/09 06:47:30;;;;;;;25.80;3.87;;;5.80;99.90;;;;;;5025065;28;20521;-77
2022/01/09 06:49:58;;;;;;;27.97;3.47;;;5.80;99.90;;;;;;5035970;28;20040;-79
2022/01/09 06:52:25;;;;;;;27.73;3.50;;;5.80;99.90;;;;;;5046047;28;20036;-80
2022/01/09 06:54:51;;;;;;;31.83;4.47;;;5.80;99.90;;;;;;5023011;28;20048;-79
2022/01/09 06:57:17;;;;;;;25.93;3.33;;;5.80;99.90;;;;;;5060145;28;20098;-78
2022/01/09 06:59:43;;;;;;;30.83;4.13;;;5.80;99.90;;;;;;5039431;28;20060;-79
2022/01/09 07:02:08;;;;;;;30.90;3.77;;;5.80;99.90;;;;;;5052228;28;20049;-79
2022/01/09 07:04:34;;;;;;;28.77;4.07;;;5.70;99.90;;;;;;5046028;28;20448;-79
2022/01/09 07:07:00;;;;;;;26.90;3.87;;;5.70;99.90;;;;;;5036754;28;20348;-79
2022/01/09 07:09:27;;;;;;;25.40;3.83;;;5.70;99.90;;;;;;5039635;28;20458;-79
2022/01/09 07:11:52;;;;;;;24.33;3.13;;;5.70;99.90;;;;;;5045316;28;20421;-79
2022/01/09 07:14:18;;;;;;;25.20;3.17;;;5.70;99.90;;;;;;5054155;28;20119;-79
2022/01/09 07:16:44;;;;;;;30.50;3.67;;;5.60;99.90;;;;;;5043881;28;20041;-78
2022/01/09 07:19:10;;;;;;;26.37;4.03;;;5.60;99.90;;;;;;5061463;28;20058;-79
2022/01/09 07:21:35;;;;;;;23.80;3.40;;;5.60;99.90;;;;;;5030036;28;20040;-77
2022/01/09 07:24:01;;;;;;;19.80;3.03;;;5.60;99.90;;;;;;5044405;28;20048;-79
2022/01/09 07:26:28;;;;;;;27.40;4.17;;;5.60;99.90;;;;;;5030888;28;20047;-79
2022/01/09 07:28:54;;;;;;;21.23;2.73;;;5.50;99.90;;;;;;5046342;28;20055;-78
2022/01/09 07:31:19;;;;;;;14.80;2.13;;;5.50;99.90;;;;;;5045287;28;20051;-78
2022/01/09 07:33:45;;;;;;;24.13;2.93;;;5.50;99.90;;;;;;5047046;28;20123;-79
2022/01/09 07:36:11;;;;;;;16.80;2.63;;;5.40;99.90;;;;;;5037583;28;20131;-79
2022/01/09 07:38:37;;;;;;;23.73;2.97;;;5.40;99.90;;;;;;5061732;28;20395;-79
2022/01/09 07:41:02;;;;;;;20.10;2.73;;;5.40;99.90;;;;;;5050048;28;20509;-80
2022/01/09 07:43:30;;;;;;;17.30;2.67;;;5.40;99.90;;;;;;5035269;28;20051;-78
2022/01/09 07:45:55;;;;;;;15.10;2.37;;;5.40;99.90;;;;;;5059063;28;20114;-80
2022/01/09 07:48:23;;;;;;;21.87;2.30;;;5.30;99.90;;;;;;5046128;28;20770;-79
2022/01/09 07:50:49;;;;;;;12.70;2.10;;;5.40;99.90;;;;;;5068477;28;20140;-79
2022/01/09 07:53:17;;;;;;;19.47;2.40;;;5.40;99.90;;;;;;5020356;28;20132;-78
2022/01/09 07:55:43;;;;;;;15.00;2.43;;;5.30;99.90;;;;;;5064831;28;20133;-79
2022/01/09 07:58:08;;;;;;;14.27;2.30;;;5.40;99.90;;;;;;5070710;28;20421;-78
2022/01/09 08:00:36;;;;;;;15.67;2.63;;;5.30;99.90;;;;;;5056794;28;20044;-79
2022/01/09 08:03:01;;;;;;;14.03;1.90;;;5.30;99.90;;;;;;5038029;28;20076;-78
2022/01/09 08:05:27;;;;;;;20.53;2.30;;;5.30;99.90;;;;;;5049438;28;20120;-78
2022/01/09 08:07:53;;;;;;;17.00;2.23;;;5.30;99.90;;;;;;5024849;28;20414;-78
2022/01/09 08:10:19;;;;;;;21.93;2.27;;;5.30;99.90;;;;;;5042776;28;20051;-77
2022/01/09 08:12:44;;;;;;;12.50;1.93;;;5.30;99.90;;;;;;5025928;28;20044;-79
2022/01/09 08:15:11;;;;;;;11.03;2.40;;;5.30;99.90;;;;;;5048662;28;20517;-78
2022/01/09 08:17:41;;;;;;;14.90;1.93;;;5.30;99.90;;;;;;5052783;28;20062;-77
2022/01/09 08:20:08;;;;;;;17.70;2.20;;;5.20;99.90;;;;;;5058423;28;20048;-78
2022/01/09 08:22:35;;;;;;;16.13;2.07;;;5.30;99.90;;;;;;5060236;28;20032;-77
2022/01/09 08:25:03;;;;;;;20.10;2.47;;;5.20;99.90;;;;;;5045791;28;20413;-79
2022/01/09 08:27:29;;;;;;;16.17;2.53;;;5.20;99.90;;;;;;5061446;28;20037;-77
2022/01/09 08:29:54;;;;;;;14.87;2.10;;;5.20;99.90;;;;;;5048462;28;20612;-79
2022/01/09 08:32:20;;;;;;;15.30;2.73;;;5.30;99.90;;;;;;5049318;28;20048;-80
2022/01/09 08:34:47;;;;;;;22.37;2.43;;;5.20;99.90;;;;;;5052115;28;20401;-78
2022/01/09 08:37:13;;;;;;;12.77;2.20;;;5.30;99.90;;;;;;5033062;28;20044;-79
2022/01/09 08:39:39;;;;;;;13.90;2.10;;;5.30;99.90;;;;;;5039818;28;20059;-78
2022/01/09 08:42:05;;;;;;;11.83;1.73;;;5.30;99.90;;;;;;5027036;28;20417;-79
2022/01/09 08:44:30;;;;;;;13.23;2.30;;;5.30;99.90;;;;;;5043611;28;20056;-79
2022/01/09 08:46:56;;;;;;;11.23;2.30;;;5.30;99.90;;;;;;5044350;28;20059;-79
2022/01/09 08:49:22;;;;;;;19.33;2.57;;;5.40;99.90;;;;;;5038529;28;20044;-79
2022/01/09 08:51:49;;;;;;;17.30;2.60;;;5.40;99.90;;;;;;5087473;28;20584;-79
2022/01/09 08:54:15;;;;;;;13.47;1.97;;;5.40;99.90;;;;;;5045158;28;20414;-79
2022/01/09 08:56:41;;;;;;;15.63;2.07;;;5.40;99.90;;;;;;5033634;28;20041;-79
2022/01/09 08:59:07;;;;;;;15.73;2.30;;;5.50;99.90;;;;;;5038323;28;20117;-78
2022/01/09 09:01:33;;;;;;;15.63;2.27;;;5.50;99.90;;;;;;5037695;28;20052;-78
2022/01/09 09:03:58;;;;;;;12.67;2.27;;;5.50;99.90;;;;;;5040615;28;20044;-78
2022/01/09 09:06:24;;;;;;;17.07;2.97;;;5.60;99.90;;;;;;5034675;28;20494;-78
2022/01/09 09:08:51;;;;;;;15.73;3.60;;;5.60;99.90;;;;;;5033472;28;20045;-78
2022/01/09 09:11:17;;;;;;;21.10;2.97;;;5.60;99.90;;;;;;5036614;28;20155;-77
2022/01/09 09:13:42;;;;;;;20.23;3.43;;;5.70;99.90;;;;;;5061235;28;20123;-78
2022/01/09 09:16:09;;;;;;;12.47;2.97;;;5.70;99.90;;;;;;5040933;28;20063;-78
2022/01/09 09:18:35;;;;;;;15.57;3.60;;;5.70;99.90;;;;;;5045386;28;20405;-78
2022/01/09 09:21:01;;;;;;;16.90;2.10;;;5.70;99.90;;;;;;5038886;28;20046;-78
2022/01/09 09:23:27;;;;;;;17.80;2.33;;;5.70;99.90;;;;;;5051080;28;20040;-78
2022/01/09 09:25:54;;;;;;;11.67;1.80;;;5.70;99.90;;;;;;5056427;28;20082;-79
2022/01/09 09:28:20;;;;;;;20.73;2.17;;;5.70;99.90;;;;;;5039722;28;20068;-78
2022/01/09 09:30:45;;;;;;;15.97;2.50;;;5.70;99.90;;;;;;5046096;28;20550;-78
2022/01/09 09:33:11;;;;;;;18.60;2.80;;;5.70;99.90;;;;;;5044312;28;20056;-77
2022/01/09 09:35:37;;;;;;;20.57;2.73;;;5.80;99.90;;;;;;5025398;28;20133;-78
2022/01/09 09:38:04;;;;;;;16.03;2.40;;;5.80;99.90;;;;;;5039825;28;20043;-77
2022/01/09 09:40:30;;;;;;;16.13;2.43;;;5.80;99.90;;;;;;5042591;28;20044;-78
2022/01/09 09:42:58;;;;;;;17.17;2.13;;;5.80;99.90;;;;;;5044268;28;20048;-78
2022/01/09 09:45:24;;;;;;;15.20;3.03;;;5.80;99.90;;;;;;5037446;28;20052;-79
2022/01/09 09:47:51;;;;;;;15.00;2.70;;;5.90;99.90;;;;;;5054962;28;20120;-78
2022/01/09 09:50:19;;;;;;;15.27;2.80;;;5.90;99.90;;;;;;5034951;28;20044;-78
2022/01/09 09:52:46;;;;;;;13.20;2.23;;;5.90;99.90;;;;;;5052274;28;20045;-78
2022/01/09 09:55:13;;;;;;;13.03;2.43;;;5.90;99.90;;;;;;5018415;28;20036;-77
2022/01/09 09:57:38;;;;;;;15.07;2.73;;;6.00;99.90;;;;;;5035145;28;20064;-77
2022/01/09 10:00:09;;;;;;;11.90;2.17;;;6.10;99.90;;;;;;5014942;28;20072;-78
2022/01/09 10:02:44;;;;;;;15.23;1.97;;;6.10;99.90;;;;;;5032807;28;20117;-78
2022/01/09 10:05:10;;;;;;;11.03;1.80;;;6.10;99.90;;;;;;5031790;28;20062;-79
2022/01/09 10:07:36;;;;;;;13.10;2.37;;;6.20;99.90;;;;;;5037984;28;20048;-77
2022/01/09 10:10:09;;;;;;;12.23;2.10;;;6.30;99.90;;;;;;5028930;28;20052;-77
2022/01/09 10:12:35;;;;;;;14.83;2.50;;;6.30;99.90;;;;;;5029724;28;20633;-79
2022/01/09 10:15:04;;;;;;;12.87;2.30;;;6.40;99.90;;;;;;5040015;28;20040;-78
2022/01/09 10:17:31;;;;;;;12.20;1.83;;;6.50;99.90;;;;;;5025393;28;20064;-78
2022/01/09 10:19:58;;;;;;;12.77;1.80;;;6.60;99.90;;;;;;5034967;28;20044;-78
2022/01/09 10:22:28;;;;;;;9.47;1.57;;;6.70;99.90;;;;;;5035622;28;20060;-77
2022/01/09 10:24:55;;;;;;;13.67;1.80;;;6.80;99.90;;;;;;5031884;28;20048;-78
2022/01/09 10:27:30;;;;;;;10.73;1.80;;;6.80;99.90;;;;;;5033430;28;20059;-77
2022/01/09 10:29:56;;;;;;;9.33;1.77;;;6.90;99.90;;;;;;5034059;28;20040;-78
2022/01/09 10:32:25;;;;;;;7.53;1.30;;;6.90;99.90;;;;;;5033512;28;20041;-78
2022/01/09 10:35:09;;;;;;;9.03;2.13;;;7.00;99.90;;;;;;5046568;28;20770;-75
2022/01/09 10:37:36;;;;;;;8.83;1.80;;;7.00;99.90;;;;;;5038781;28;20056;-79
2022/01/09 10:40:05;;;;;;;8.53;1.90;;;7.10;99.90;;;;;;5053227;28;20059;-75
2022/01/09 10:42:31;;;;;;;10.53;2.50;;;7.10;99.90;;;;;;5030722;28;20048;-77
2022/01/09 10:45:15;;;;;;;5.93;1.63;;;7.10;99.90;;;;;;5016346;28;20060;-80
2022/01/09 10:47:41;;;;;;;7.20;1.40;;;7.10;99.90;;;;;;5034135;28;20484;-77
2022/01/09 10:50:10;;;;;;;7.37;1.90;;;7.10;99.90;;;;;;5032616;28;20052;-78
2022/01/09 10:52:39;;;;;;;8.53;1.53;;;7.10;99.90;;;;;;5045799;28;20052;-77
2022/01/09 10:55:07;;;;;;;6.70;1.40;;;7.10;99.90;;;;;;5026300;28;20043;-78
2022/01/09 10:57:36;;;;;;;8.80;1.37;;;7.10;99.90;;;;;;5048575;28;20045;-79
2022/01/09 11:00:07;;;;;;;6.40;1.30;;;7.10;99.90;;;;;;5031457;28;20715;-77
2022/01/09 11:02:33;;;;;;;6.90;1.20;;;7.20;99.90;;;;;;5012266;28;20045;-78
2022/01/09 11:04:59;;;;;;;11.20;1.30;;;7.20;99.90;;;;;;5014141;28;20048;-77
2022/01/09 11:07:26;;;;;;;9.80;1.70;;;7.30;99.90;;;;;;5030647;28;20033;-78
2022/01/09 11:09:53;;;;;;;12.50;1.80;;;7.40;99.90;;;;;;5015181;28;20048;-77
2022/01/09 11:12:21;;;;;;;8.90;2.00;;;7.60;99.90;;;;;;5047319;28;20028;-78
2022/01/09 11:14:49;;;;;;;7.90;1.60;;;7.60;99.90;;;;;;5032469;28;20047;-78
2022/01/09 11:17:16;;;;;;;6.87;1.50;;;7.60;99.90;;;;;;5031833;28;20062;-78
2022/01/09 11:19:43;;;;;;;9.63;1.97;;;7.60;99.90;;;;;;5030678;28;20048;-77
2022/01/09 11:22:12;;;;;;;8.40;1.50;;;7.60;99.90;;;;;;5046966;28;20175;-77
2022/01/09 11:25:02;;;;;;;13.83;1.90;;;7.70;99.90;;;;;;5030693;28;20127;-78
2022/01/09 11:27:51;;;;;;;8.70;1.50;;;7.70;99.90;;;;;;5046343;28;20045;-78
2022/01/09 11:30:20;;;;;;;11.47;1.77;;;7.90;99.90;;;;;;5036555;28;20056;-77
2022/01/09 11:32:55;;;;;;;13.80;1.73;;;8.00;99.90;;;;;;5035935;28;20494;-79
2022/01/09 11:35:31;;;;;;;12.43;3.03;;;8.10;99.90;;;;;;5033613;28;20157;-79
2022/01/09 11:38:07;;;;;;;14.83;2.97;;;8.20;99.90;;;;;;5050044;28;20060;-76
2022/01/09 11:40:34;;;;;;;20.73;3.23;;;8.30;99.90;;;;;;5035723;28;20044;-78
2022/01/09 11:43:06;;;;;;;15.37;3.13;;;8.50;99.90;;;;;;5017197;28;20110;-77
2022/01/09 11:45:43;;;;;;;16.83;4.07;;;8.80;99.90;;;;;;5033258;28;20123;-77
2022/01/09 11:48:09;;;;;;;16.53;3.43;;;9.10;99.90;;;;;;5022713;28;20064;-77
2022/01/09 11:50:36;;;;;;;18.70;5.33;;;9.30;99.90;;;;;;5035839;28;20044;-76
2022/01/09 11:53:02;;;;;;;15.70;2.93;;;9.60;99.90;;;;;;5055128;28;20051;-78
2022/01/09 11:55:43;;;;;;;7.73;2.13;;;9.90;99.90;;;;;;5037350;28;20036;-78
2022/01/09 11:58:11;;;;;;;14.70;2.40;;;10.00;99.90;;;;;;5036911;28;20086;-79
2022/01/09 12:00:39;;;;;;;10.90;1.90;;;9.90;99.90;;;;;;5037096;28;20404;-77
2022/01/09 12:03:34;;;;;;;12.00;2.40;;;9.90;99.90;;;;;;5038814;28;20087;-79
2022/01/09 12:06:01;;;;;;;10.23;2.00;;;9.80;99.90;;;;;;5038148;28;20041;-77
2022/01/09 12:08:27;;;;;;;13.83;2.23;;;9.80;99.90;;;;;;5041644;28;20044;-78
2022/01/09 12:10:54;;;;;;;13.00;2.10;;;9.60;99.90;;;;;;5056077;28;20051;-78
2022/01/09 12:13:48;;;;;;;17.40;2.40;;;9.50;99.90;;;;;;5068907;28;20052;-78
2022/01/09 12:16:46;;;;;;;17.10;2.70;;;9.30;99.90;;;;;;5065948;28;20051;-78
2022/01/09 12:19:12;;;;;;;17.77;2.73;;;9.30;99.90;;;;;;5057020;28;20045;-79
2022/01/09 12:21:49;;;;;;;16.27;2.60;;;9.50;99.90;;;;;;5069548;28;20040;-79
2022/01/09 12:24:42;;;;;;;19.13;2.57;;;9.70;99.90;;;;;;5044234;28;20040;-79
2022/01/09 12:27:42;;;;;;;16.03;2.70;;;10.20;99.90;;;;;;5002241;28;20498;-78
2022/01/09 12:30:09;;;;;;;17.53;2.70;;;10.70;99.90;;;;;;5068501;28;20040;-79
2022/01/09 12:32:40;;;;;;;15.03;2.73;;;11.10;99.90;;;;;;5053611;28;20044;-78
2022/01/09 12:35:14;;;;;;;12.87;2.70;;;11.30;99.90;;;;;;5064119;28;20102;-78
2022/01/09 12:37:43;;;;;;;;;;;11.20;99.90;;;;;;5022175;28;20044;-79
2022/01/09 12:40:10;;;;;;;19.33;3.20;;;10.80;99.90;;;;;;5046433;28;19920;-77
2022/01/09 12:42:36;;;;;;;16.77;2.73;;;10.40;99.90;;;;;;5057310;28;20125;-78
2022/01/09 12:45:04;;;;;;;20.20;2.67;;;10.10;99.90;;;;;;5049870;28;20068;-78
2022/01/09 12:47:37;;;;;;;20.67;3.30;;;10.20;99.90;;;;;;5038777;28;20125;-78